Terminal Aerodrome Forecast
Issued by NWS

Home | Current Version | Previous Version | Text Only | Print | Product List | Glossary On
Versions: 1 2 3 4 5 6 7 8 9 10 11 12
000
FTAK31 PAJN 181100
TAFAGY
TAF
PAGY 181126Z 1812/1912 20016KT P6SM VCSH SCT040 BKN070
     FM181400 20012KT P6SM -RA BKN040 OVC070
     FM181800 20015G25KT P6SM VCSH BKN050 OVC080
     FM190300 21010KT P6SM -RA BKN035 OVC060
      AMD LTD TO CLD VIS AND WIND=

USA.gov is the U.S. government's official web portal to all federal, state and local government web resources and services.